aviador You're here:

KLNK Decoded Metar

LINCOLN in NE, USA
Report Time2017-07-22 23:54:00
UTC Time2017-07-23 00:46:58
Flight Rules vfr VFR
Wind020° at 11 kt
W.Decomp.*RWY 36: 10.7 kt HW 2.7 kt RCW
RWY 35: 10.0 kt HW 4.5 kt RCW
RWY 32: 6.5 kt HW 8.9 kt RCW
W.Rank020° ranks 15
Current wind is above 020° avg. (9.8)
Visibility9999 m
Phenomena:N/A
Clouds:N/A
Expected CloudBase > 2,000 ft AGL from Temp-Dew spread
CeilingNone
Temp28°C (ISA +15)
Dew Point23°C (74% RH)
Heat Index31.2°C
QNH1013 hPa
Density Alt3,333 ft
Elevation1,194 ft
Report Wrong Elevation
Raw Report
KLNK 222354Z 02011KT 10SM CLR 28/23 A2990 RMK AO2 SLP110 T02830233
10339 20283 55005=

Extra information for KLNK:More info

Metar Taf Metar & Taf Last 4 Metars F.Rules Stats Wind Profile Meteogram Temp Stats Airport Information Weather charts Add Link Nearby VenuesMetar ALERT Operation Metar Decoded Social comments

AIRNAV info for KLNK